sensor_id;sensor_type;location;lat;lon;timestamp;pressure;altitude;pressure_sealevel;temperature;humidity
56176;BME280;63065;51.082;17.016;2023-03-21T00:02:18;100316.96;;;15.96;42.26
56176;BME280;63065;51.082;17.016;2023-03-21T00:04:44;100313.31;;;15.70;42.44
56176;BME280;63065;51.082;17.016;2023-03-21T00:07:09;100312.92;;;15.73;42.41
56176;BME280;63065;51.082;17.016;2023-03-21T00:09:34;100309.84;;;15.75;42.34
56176;BME280;63065;51.082;17.016;2023-03-21T00:11:59;100309.99;;;16.05;42.30
56176;BME280;63065;51.082;17.016;2023-03-21T00:14:25;100308.12;;;16.02;42.25
56176;BME280;63065;51.082;17.016;2023-03-21T00:16:50;100303.61;;;16.28;42.05
56176;BME280;63065;51.082;17.016;2023-03-21T00:19:16;100302.56;;;15.98;42.27
56176;BME280;63065;51.082;17.016;2023-03-21T00:21:41;100299.66;;;16.01;42.00
56176;BME280;63065;51.082;17.016;2023-03-21T00:24:11;100298.45;;;15.48;42.18
56176;BME280;63065;51.082;17.016;2023-03-21T00:26:32;100293.96;;;15.92;41.94
56176;BME280;63065;51.082;17.016;2023-03-21T00:28:57;100293.91;;;15.96;41.71
56176;BME280;63065;51.082;17.016;2023-03-21T00:31:23;100292.25;;;16.12;41.76
56176;BME280;63065;51.082;17.016;2023-03-21T00:33:48;100291.04;;;15.71;41.90
56176;BME280;63065;51.082;17.016;2023-03-21T00:36:14;100287.59;;;15.91;41.98
56176;BME280;63065;51.082;17.016;2023-03-21T00:38:40;100288.90;;;15.65;42.15
56176;BME280;63065;51.082;17.016;2023-03-21T00:41:07;100288.01;;;15.95;42.23
56176;BME280;63065;51.082;17.016;2023-03-21T00:43:31;100285.30;;;15.99;42.30
56176;BME280;63065;51.082;17.016;2023-03-21T00:45:58;100285.35;;;15.77;42.18
56176;BME280;63065;51.082;17.016;2023-03-21T00:48:23;100287.78;;;16.05;42.30
56176;BME280;63065;51.082;17.016;2023-03-21T00:50:51;100283.25;;;16.06;42.23
56176;BME280;63065;51.082;17.016;2023-03-21T00:53:14;100284.05;;;15.84;42.17
56176;BME280;63065;51.082;17.016;2023-03-21T00:55:39;100283.51;;;15.83;42.05
56176;BME280;63065;51.082;17.016;2023-03-21T00:58:04;100284.85;;;15.86;42.23
56176;BME280;63065;51.082;17.016;2023-03-21T01:00:30;100281.76;;;16.14;42.04
56176;BME280;63065;51.082;17.016;2023-03-21T01:02:56;100283.22;;;16.35;42.06
56176;BME280;63065;51.082;17.016;2023-03-21T01:05:22;100284.06;;;16.10;42.10
56176;BME280;63065;51.082;17.016;2023-03-21T01:07:46;100300.50;;;16.15;42.69
56176;BME280;63065;51.082;17.016;2023-03-21T01:10:12;100307.45;;;15.32;43.75
56176;BME280;63065;51.082;17.016;2023-03-21T01:12:37;100304.94;;;13.68;45.80
56176;BME280;63065;51.082;17.016;2023-03-21T01:15:03;100301.68;;;13.37;47.27
56176;BME280;63065;51.082;17.016;2023-03-21T01:17:28;100296.76;;;13.46;47.19
56176;BME280;63065;51.082;17.016;2023-03-21T01:19:54;100293.68;;;13.43;47.26
56176;BME280;63065;51.082;17.016;2023-03-21T01:22:19;100289.87;;;13.72;46.45
56176;BME280;63065;51.082;17.016;2023-03-21T01:24:45;100282.93;;;13.77;45.60
56176;BME280;63065;51.082;17.016;2023-03-21T01:27:10;100278.44;;;13.85;45.31
56176;BME280;63065;51.082;17.016;2023-03-21T01:29:36;100276.61;;;13.31;45.62
56176;BME280;63065;51.082;17.016;2023-03-21T01:32:01;100276.81;;;13.41;46.31
56176;BME280;63065;51.082;17.016;2023-03-21T01:34:26;100272.92;;;13.74;45.42
56176;BME280;63065;51.082;17.016;2023-03-21T01:36:53;100273.21;;;14.18;45.04
56176;BME280;63065;51.082;17.016;2023-03-21T01:39:18;100265.42;;;14.10;44.89
56176;BME280;63065;51.082;17.016;2023-03-21T01:41:44;100259.04;;;14.38;45.02
56176;BME280;63065;51.082;17.016;2023-03-21T01:44:14;100258.72;;;14.62;43.56
56176;BME280;63065;51.082;17.016;2023-03-21T01:46:37;100259.70;;;14.51;44.56
56176;BME280;63065;51.082;17.016;2023-03-21T01:49:02;100267.88;;;14.68;44.09
56176;BME280;63065;51.082;17.016;2023-03-21T01:51:26;100270.06;;;14.55;43.86
56176;BME280;63065;51.082;17.016;2023-03-21T01:53:50;100266.61;;;14.26;44.12
56176;BME280;63065;51.082;17.016;2023-03-21T01:56:20;100260.47;;;14.65;43.44
56176;BME280;63065;51.082;17.016;2023-03-21T01:58:42;100268.77;;;14.58;44.04
56176;BME280;63065;51.082;17.016;2023-03-21T02:01:08;100272.63;;;14.68;43.64
56176;BME280;63065;51.082;17.016;2023-03-21T02:03:33;100268.46;;;14.87;43.58
56176;BME280;63065;51.082;17.016;2023-03-21T02:06:00;100270.92;;;14.54;43.11
56176;BME280;63065;51.082;17.016;2023-03-21T02:08:24;100277.62;;;14.42;43.28
56176;BME280;63065;51.082;17.016;2023-03-21T02:10:49;100278.08;;;14.33;44.08
56176;BME280;63065;51.082;17.016;2023-03-21T02:13:15;100281.07;;;14.37;44.03
56176;BME280;63065;51.082;17.016;2023-03-21T02:15:41;100280.56;;;14.32;44.13
56176;BME280;63065;51.082;17.016;2023-03-21T02:18:09;100287.73;;;14.26;44.25
56176;BME280;63065;51.082;17.016;2023-03-21T02:23:09;100285.40;;;14.21;44.03
56176;BME280;63065;51.082;17.016;2023-03-21T02:25:37;100283.30;;;13.97;44.25
56176;BME280;63065;51.082;17.016;2023-03-21T02:27:50;100282.74;;;14.03;44.51
56176;BME280;63065;51.082;17.016;2023-03-21T02:32:51;100284.26;;;14.08;44.67
56176;BME280;63065;51.082;17.016;2023-03-21T02:35:15;100283.23;;;13.90;44.80
56176;BME280;63065;51.082;17.016;2023-03-21T02:37:31;100286.21;;;14.14;44.88
56176;BME280;63065;51.082;17.016;2023-03-21T02:40:02;100281.40;;;14.28;44.21
56176;BME280;63065;51.082;17.016;2023-03-21T02:42:22;100280.11;;;14.10;44.47
56176;BME280;63065;51.082;17.016;2023-03-21T02:44:48;100278.93;;;13.91;44.42
56176;BME280;63065;51.082;17.016;2023-03-21T02:47:12;100280.89;;;14.39;44.06
56176;BME280;63065;51.082;17.016;2023-03-21T02:49:40;100284.66;;;13.86;43.85
56176;BME280;63065;51.082;17.016;2023-03-21T02:52:01;100285.11;;;14.37;44.08
56176;BME280;63065;51.082;17.016;2023-03-21T02:54:27;100286.83;;;14.17;45.01
56176;BME280;63065;51.082;17.016;2023-03-21T02:56:51;100283.98;;;13.96;45.15
56176;BME280;63065;51.082;17.016;2023-03-21T02:59:17;100285.65;;;13.98;45.00
56176;BME280;63065;51.082;17.016;2023-03-21T03:01:41;100282.66;;;14.03;45.01
56176;BME280;63065;51.082;17.016;2023-03-21T03:06:39;100277.65;;;14.48;44.64
56176;BME280;63065;51.082;17.016;2023-03-21T03:09:12;100280.26;;;14.68;44.08
56176;BME280;63065;51.082;17.016;2023-03-21T03:11:25;100286.22;;;14.33;43.84
56176;BME280;63065;51.082;17.016;2023-03-21T03:13:57;100284.93;;;14.51;44.19
56176;BME280;63065;51.082;17.016;2023-03-21T03:16:20;100283.01;;;14.63;44.00
56176;BME280;63065;51.082;17.016;2023-03-21T03:18:44;100286.45;;;14.67;43.79
56176;BME280;63065;51.082;17.016;2023-03-21T03:21:08;100289.31;;;14.36;44.14
56176;BME280;63065;51.082;17.016;2023-03-21T03:23:34;100290.19;;;14.55;43.83
56176;BME280;63065;51.082;17.016;2023-03-21T03:25:59;100287.19;;;14.87;43.78
56176;BME280;63065;51.082;17.016;2023-03-21T03:28:25;100290.36;;;14.29;43.74
56176;BME280;63065;51.082;17.016;2023-03-21T03:30:47;100291.27;;;14.54;43.65
56176;BME280;63065;51.082;17.016;2023-03-21T03:33:12;100290.03;;;14.53;44.00
56176;BME280;63065;51.082;17.016;2023-03-21T03:35:37;100292.50;;;14.40;43.93
56176;BME280;63065;51.082;17.016;2023-03-21T03:38:05;100291.69;;;14.59;44.15
56176;BME280;63065;51.082;17.016;2023-03-21T03:40:30;100293.09;;;14.47;43.86
56176;BME280;63065;51.082;17.016;2023-03-21T03:42:57;100292.38;;;14.58;43.44
56176;BME280;63065;51.082;17.016;2023-03-21T03:45:24;100292.48;;;14.29;43.82
56176;BME280;63065;51.082;17.016;2023-03-21T03:47:48;100288.47;;;14.36;43.68
56176;BME280;63065;51.082;17.016;2023-03-21T03:50:15;100288.07;;;14.45;43.33
56176;BME280;63065;51.082;17.016;2023-03-21T03:52:37;100288.50;;;14.17;43.63
56176;BME280;63065;51.082;17.016;2023-03-21T03:55:02;100290.45;;;14.15;44.16
56176;BME280;63065;51.082;17.016;2023-03-21T03:57:26;100293.21;;;14.07;44.35
56176;BME280;63065;51.082;17.016;2023-03-21T03:59:51;100295.12;;;14.04;44.33
56176;BME280;63065;51.082;17.016;2023-03-21T04:02:17;100299.99;;;13.77;44.89
56176;BME280;63065;51.082;17.016;2023-03-21T04:04:42;100300.09;;;13.78;44.55
56176;BME280;63065;51.082;17.016;2023-03-21T04:07:07;100303.72;;;14.02;44.59
56176;BME280;63065;51.082;17.016;2023-03-21T04:09:33;100299.42;;;13.87;45.03
56176;BME280;63065;51.082;17.016;2023-03-21T04:11:59;100303.37;;;13.97;44.39
56176;BME280;63065;51.082;17.016;2023-03-21T04:14:24;100301.38;;;14.21;44.25
56176;BME280;63065;51.082;17.016;2023-03-21T04:16:49;100302.16;;;14.13;44.67
56176;BME280;63065;51.082;17.016;2023-03-21T04:19:14;100301.49;;;13.97;43.99
56176;BME280;63065;51.082;17.016;2023-03-21T04:21:41;100303.25;;;14.09;44.14
56176;BME280;63065;51.082;17.016;2023-03-21T04:24:06;100306.46;;;13.81;44.15
56176;BME280;63065;51.082;17.016;2023-03-21T04:26:31;100304.23;;;13.66;44.64
56176;BME280;63065;51.082;17.016;2023-03-21T04:28:58;100304.29;;;13.89;44.68
56176;BME280;63065;51.082;17.016;2023-03-21T04:31:23;100304.51;;;14.14;44.11
56176;BME280;63065;51.082;17.016;2023-03-21T04:33:48;100303.75;;;14.25;44.42
56176;BME280;63065;51.082;17.016;2023-03-21T04:36:13;100304.15;;;14.09;43.82
56176;BME280;63065;51.082;17.016;2023-03-21T04:38:39;100308.17;;;13.70;44.79
56176;BME280;63065;51.082;17.016;2023-03-21T04:41:04;100310.66;;;13.86;44.75
56176;BME280;63065;51.082;17.016;2023-03-21T04:43:29;100308.42;;;13.95;44.38
56176;BME280;63065;51.082;17.016;2023-03-21T04:45:55;100309.69;;;14.07;43.87
56176;BME280;63065;51.082;17.016;2023-03-21T04:48:20;100308.12;;;14.42;43.98
56176;BME280;63065;51.082;17.016;2023-03-21T04:50:46;100310.75;;;13.99;44.02
56176;BME280;63065;51.082;17.016;2023-03-21T04:53:12;100307.66;;;14.20;43.57
56176;BME280;63065;51.082;17.016;2023-03-21T04:55:37;100310.35;;;14.51;43.45
56176;BME280;63065;51.082;17.016;2023-03-21T04:58:03;100310.54;;;14.19;44.08
56176;BME280;63065;51.082;17.016;2023-03-21T05:00:29;100311.52;;;14.28;43.93
56176;BME280;63065;51.082;17.016;2023-03-21T05:02:54;100307.90;;;14.03;43.36
56176;BME280;63065;51.082;17.016;2023-03-21T05:05:20;100307.71;;;14.38;43.61
56176;BME280;63065;51.082;17.016;2023-03-21T05:07:45;100309.98;;;14.50;43.78
56176;BME280;63065;51.082;17.016;2023-03-21T05:10:11;100311.39;;;14.22;43.76
56176;BME280;63065;51.082;17.016;2023-03-21T05:12:37;100313.99;;;14.56;43.41
56176;BME280;63065;51.082;17.016;2023-03-21T05:15:02;100314.04;;;14.37;43.88
56176;BME280;63065;51.082;17.016;2023-03-21T05:17:27;100312.99;;;14.36;43.77
56176;BME280;63065;51.082;17.016;2023-03-21T05:19:53;100311.90;;;14.48;43.63
56176;BME280;63065;51.082;17.016;2023-03-21T05:22:19;100316.63;;;14.48;44.04
56176;BME280;63065;51.082;17.016;2023-03-21T05:24:44;100318.09;;;14.51;43.85
56176;BME280;63065;51.082;17.016;2023-03-21T05:27:10;100319.21;;;14.19;43.85
56176;BME280;63065;51.082;17.016;2023-03-21T05:29:35;100327.55;;;14.06;44.16
56176;BME280;63065;51.082;17.016;2023-03-21T05:32:01;100325.81;;;13.90;44.21
56176;BME280;63065;51.082;17.016;2023-03-21T05:34:27;100325.73;;;14.38;44.14
56176;BME280;63065;51.082;17.016;2023-03-21T05:36:52;100329.08;;;14.43;43.78
56176;BME280;63065;51.082;17.016;2023-03-21T05:39:17;100327.17;;;14.15;43.94
56176;BME280;63065;51.082;17.016;2023-03-21T05:41:42;100330.97;;;14.44;43.62
56176;BME280;63065;51.082;17.016;2023-03-21T05:44:07;100329.53;;;14.30;44.08
56176;BME280;63065;51.082;17.016;2023-03-21T05:46:32;100332.84;;;14.48;43.97
56176;BME280;63065;51.082;17.016;2023-03-21T05:48:57;100332.64;;;14.54;43.88
56176;BME280;63065;51.082;17.016;2023-03-21T05:51:23;100336.96;;;14.57;44.31
56176;BME280;63065;51.082;17.016;2023-03-21T05:53:48;100335.72;;;14.36;43.74
56176;BME280;63065;51.082;17.016;2023-03-21T05:56:13;100340.38;;;14.08;43.77
56176;BME280;63065;51.082;17.016;2023-03-21T05:58:39;100339.55;;;14.29;44.45
56176;BME280;63065;51.082;17.016;2023-03-21T06:01:05;100347.46;;;14.15;43.99
56176;BME280;63065;51.082;17.016;2023-03-21T06:03:30;100346.95;;;14.24;44.77
56176;BME280;63065;51.082;17.016;2023-03-21T06:05:56;100342.67;;;14.14;44.02
56176;BME280;63065;51.082;17.016;2023-03-21T06:08:21;100346.75;;;14.62;43.50
56176;BME280;63065;51.082;17.016;2023-03-21T06:10:47;100341.66;;;14.39;43.86
56176;BME280;63065;51.082;17.016;2023-03-21T06:13:12;100345.26;;;14.68;43.64
56176;BME280;63065;51.082;17.016;2023-03-21T06:15:37;100343.17;;;14.65;43.40
56176;BME280;63065;51.082;17.016;2023-03-21T06:18:03;100348.27;;;14.59;43.07
56176;BME280;63065;51.082;17.016;2023-03-21T06:20:28;100349.00;;;14.68;43.19
56176;BME280;63065;51.082;17.016;2023-03-21T06:22:53;100351.33;;;14.92;42.38
56176;BME280;63065;51.082;17.016;2023-03-21T06:25:19;100350.27;;;14.84;42.94
56176;BME280;63065;51.082;17.016;2023-03-21T06:27:44;100351.38;;;14.93;43.19
56176;BME280;63065;51.082;17.016;2023-03-21T06:30:10;100350.52;;;14.79;42.72
56176;BME280;63065;51.082;17.016;2023-03-21T06:32:35;100351.18;;;15.08;42.74
56176;BME280;63065;51.082;17.016;2023-03-21T06:35:00;100353.73;;;14.47;43.09
56176;BME280;63065;51.082;17.016;2023-03-21T06:37:26;100355.79;;;14.49;43.36
56176;BME280;63065;51.082;17.016;2023-03-21T06:39:52;100356.54;;;14.89;42.84
56176;BME280;63065;51.082;17.016;2023-03-21T06:42:17;100358.68;;;14.92;42.48
56176;BME280;63065;51.082;17.016;2023-03-21T06:44:43;100356.80;;;15.40;42.60
56176;BME280;63065;51.082;17.016;2023-03-21T06:47:08;100359.68;;;15.10;42.26
56176;BME280;63065;51.082;17.016;2023-03-21T06:49:33;100361.86;;;15.45;42.13
56176;BME280;63065;51.082;17.016;2023-03-21T06:52:00;100364.43;;;14.78;41.78
56176;BME280;63065;51.082;17.016;2023-03-21T06:54:24;100366.90;;;14.80;42.53
56176;BME280;63065;51.082;17.016;2023-03-21T06:56:50;100372.84;;;14.77;42.26
56176;BME280;63065;51.082;17.016;2023-03-21T06:59:15;100374.97;;;14.38;41.54
56176;BME280;63065;51.082;17.016;2023-03-21T07:01:41;100379.22;;;14.43;41.47
56176;BME280;63065;51.082;17.016;2023-03-21T07:04:06;100380.44;;;14.19;42.26
56176;BME280;63065;51.082;17.016;2023-03-21T07:06:32;100379.04;;;14.23;42.72
56176;BME280;63065;51.082;17.016;2023-03-21T07:08:57;100383.72;;;14.10;42.22
56176;BME280;63065;51.082;17.016;2023-03-21T07:11:22;100382.24;;;14.81;42.28
56176;BME280;63065;51.082;17.016;2023-03-21T07:13:48;100382.60;;;14.54;41.98
56176;BME280;63065;51.082;17.016;2023-03-21T07:16:13;100384.24;;;14.56;41.80
56176;BME280;63065;51.082;17.016;2023-03-21T07:18:38;100385.62;;;14.65;41.41
56176;BME280;63065;51.082;17.016;2023-03-21T07:21:04;100383.69;;;14.46;42.27
56176;BME280;63065;51.082;17.016;2023-03-21T07:23:29;100388.38;;;14.75;41.38
56176;BME280;63065;51.082;17.016;2023-03-21T07:25:54;100391.91;;;14.74;42.11
56176;BME280;63065;51.082;17.016;2023-03-21T07:28:20;100394.66;;;14.53;42.17
56176;BME280;63065;51.082;17.016;2023-03-21T07:30:51;100395.06;;;14.79;42.16
56176;BME280;63065;51.082;17.016;2023-03-21T07:33:11;100398.09;;;14.91;42.21
56176;BME280;63065;51.082;17.016;2023-03-21T07:35:37;100398.18;;;14.65;42.49
56176;BME280;63065;51.082;17.016;2023-03-21T07:38:02;100398.57;;;14.43;42.77
56176;BME280;63065;51.082;17.016;2023-03-21T07:40:28;100397.47;;;14.84;42.95
56176;BME280;63065;51.082;17.016;2023-03-21T07:42:54;100397.44;;;14.98;42.67
56176;BME280;63065;51.082;17.016;2023-03-21T07:45:19;100400.24;;;14.27;43.22
56176;BME280;63065;51.082;17.016;2023-03-21T07:47:45;100401.73;;;13.98;43.78
56176;BME280;63065;51.082;17.016;2023-03-21T07:50:10;100405.21;;;13.86;43.98
56176;BME280;63065;51.082;17.016;2023-03-21T07:52:36;100402.52;;;14.20;44.50
56176;BME280;63065;51.082;17.016;2023-03-21T07:55:01;100401.67;;;13.88;44.14
56176;BME280;63065;51.082;17.016;2023-03-21T07:57:26;100403.70;;;14.19;43.68
56176;BME280;63065;51.082;17.016;2023-03-21T07:59:52;100404.96;;;13.93;44.08
56176;BME280;63065;51.082;17.016;2023-03-21T08:02:17;100407.32;;;14.02;44.18
56176;BME280;63065;51.082;17.016;2023-03-21T08:04:43;100407.99;;;14.23;43.66
56176;BME280;63065;51.082;17.016;2023-03-21T08:07:09;100410.75;;;14.21;44.28
56176;BME280;63065;51.082;17.016;2023-03-21T08:09:34;100410.23;;;14.38;43.53
56176;BME280;63065;51.082;17.016;2023-03-21T08:12:00;100412.38;;;13.97;43.96
56176;BME280;63065;51.082;17.016;2023-03-21T08:14:26;100414.43;;;13.65;44.73
56176;BME280;63065;51.082;17.016;2023-03-21T08:16:51;100414.67;;;13.88;44.87
56176;BME280;63065;51.082;17.016;2023-03-21T08:19:16;100415.63;;;14.03;44.61
56176;BME280;63065;51.082;17.016;2023-03-21T08:21:41;100415.39;;;14.07;44.05
56176;BME280;63065;51.082;17.016;2023-03-21T08:24:07;100414.39;;;14.26;43.76
56176;BME280;63065;51.082;17.016;2023-03-21T08:26:32;100413.97;;;14.21;43.44
56176;BME280;63065;51.082;17.016;2023-03-21T08:28:58;100418.77;;;14.72;42.94
56176;BME280;63065;51.082;17.016;2023-03-21T08:31:23;100422.25;;;14.70;42.84
56176;BME280;63065;51.082;17.016;2023-03-21T08:33:49;100423.31;;;14.92;42.61
56176;BME280;63065;51.082;17.016;2023-03-21T08:36:15;100426.57;;;14.97;42.60
56176;BME280;63065;51.082;17.016;2023-03-21T08:38:40;100426.84;;;14.67;42.47
56176;BME280;63065;51.082;17.016;2023-03-21T08:41:06;100426.23;;;14.20;43.01
56176;BME280;63065;51.082;17.016;2023-03-21T08:43:30;100427.96;;;14.33;43.29
56176;BME280;63065;51.082;17.016;2023-03-21T08:45:56;100426.80;;;14.42;43.66
56176;BME280;63065;51.082;17.016;2023-03-21T08:48:21;100430.90;;;14.48;43.11
56176;BME280;63065;51.082;17.016;2023-03-21T08:50:47;100428.81;;;14.65;42.53
56176;BME280;63065;51.082;17.016;2023-03-21T08:53:12;100428.35;;;14.91;42.71
56176;BME280;63065;51.082;17.016;2023-03-21T08:55:37;100428.89;;;15.24;42.21
56176;BME280;63065;51.082;17.016;2023-03-21T08:58:03;100429.53;;;15.25;42.18
56176;BME280;63065;51.082;17.016;2023-03-21T09:00:29;100432.83;;;15.27;42.53
56176;BME280;63065;51.082;17.016;2023-03-21T09:02:55;100432.93;;;15.36;42.86
56176;BME280;63065;51.082;17.016;2023-03-21T09:05:20;100435.86;;;15.51;41.54
56176;BME280;63065;51.082;17.016;2023-03-21T09:07:46;100436.62;;;15.26;42.42
56176;BME280;63065;51.082;17.016;2023-03-21T09:10:13;100436.20;;;15.68;41.89
56176;BME280;63065;51.082;17.016;2023-03-21T09:12:36;100438.28;;;15.87;40.93
56176;BME280;63065;51.082;17.016;2023-03-21T09:15:03;100441.13;;;15.51;41.51
56176;BME280;63065;51.082;17.016;2023-03-21T09:17:27;100443.25;;;15.64;41.02
56176;BME280;63065;51.082;17.016;2023-03-21T09:19:53;100443.34;;;15.37;40.55
56176;BME280;63065;51.082;17.016;2023-03-21T09:22:19;100442.87;;;15.35;41.67
56176;BME280;63065;51.082;17.016;2023-03-21T09:24:45;100443.15;;;15.40;41.38
56176;BME280;63065;51.082;17.016;2023-03-21T09:27:09;100441.22;;;14.93;41.33
56176;BME280;63065;51.082;17.016;2023-03-21T09:29:35;100442.07;;;14.82;41.68
56176;BME280;63065;51.082;17.016;2023-03-21T09:32:00;100442.51;;;15.26;41.65
56176;BME280;63065;51.082;17.016;2023-03-21T09:34:25;100440.40;;;15.66;41.65
56176;BME280;63065;51.082;17.016;2023-03-21T09:36:51;100439.72;;;15.91;41.04
56176;BME280;63065;51.082;17.016;2023-03-21T09:39:16;100442.03;;;15.54;40.39
56176;BME280;63065;51.082;17.016;2023-03-21T09:41:53;100444.81;;;15.66;41.12
56176;BME280;63065;51.082;17.016;2023-03-21T09:44:20;100444.23;;;15.28;40.68
56176;BME280;63065;51.082;17.016;2023-03-21T09:46:38;100444.99;;;15.62;41.38
56176;BME280;63065;51.082;17.016;2023-03-21T09:49:01;100441.87;;;15.59;40.43
56176;BME280;63065;51.082;17.016;2023-03-21T09:51:28;100442.87;;;15.96;40.66
56176;BME280;63065;51.082;17.016;2023-03-21T09:53:50;100442.68;;;16.09;38.23
56176;BME280;63065;51.082;17.016;2023-03-21T09:56:15;100440.48;;;16.30;38.65
56176;BME280;63065;51.082;17.016;2023-03-21T09:58:43;100443.87;;;16.07;39.13
56176;BME280;63065;51.082;17.016;2023-03-21T10:01:08;100441.72;;;15.97;38.28
56176;BME280;63065;51.082;17.016;2023-03-21T10:03:32;100440.79;;;16.02;39.66
56176;BME280;63065;51.082;17.016;2023-03-21T10:05:58;100436.16;;;16.60;39.01
56176;BME280;63065;51.082;17.016;2023-03-21T10:08:25;100433.93;;;16.68;38.56
56176;BME280;63065;51.082;17.016;2023-03-21T10:10:48;100433.63;;;15.99;38.07
56176;BME280;63065;51.082;17.016;2023-03-21T10:13:14;100428.98;;;15.88;38.97
56176;BME280;63065;51.082;17.016;2023-03-21T10:15:38;100433.03;;;16.06;38.04
56176;BME280;63065;51.082;17.016;2023-03-21T10:18:06;100433.15;;;15.74;37.30
56176;BME280;63065;51.082;17.016;2023-03-21T10:20:30;100431.07;;;15.81;39.34
56176;BME280;63065;51.082;17.016;2023-03-21T10:22:56;100433.35;;;16.26;39.62
56176;BME280;63065;51.082;17.016;2023-03-21T10:25:23;100428.98;;;16.05;36.94
56176;BME280;63065;51.082;17.016;2023-03-21T10:27:46;100432.06;;;15.94;38.54
56176;BME280;63065;51.082;17.016;2023-03-21T10:30:20;100429.22;;;15.98;37.77
56176;BME280;63065;51.082;17.016;2023-03-21T10:32:36;100429.45;;;16.47;38.07
56176;BME280;63065;51.082;17.016;2023-03-21T10:35:02;100428.96;;;16.26;38.34
56176;BME280;63065;51.082;17.016;2023-03-21T10:37:27;100432.21;;;16.77;37.93
56176;BME280;63065;51.082;17.016;2023-03-21T10:39:54;100432.13;;;16.58;37.21
56176;BME280;63065;51.082;17.016;2023-03-21T10:42:21;100429.92;;;16.57;38.37
56176;BME280;63065;51.082;17.016;2023-03-21T10:44:46;100429.79;;;16.24;37.05
56176;BME280;63065;51.082;17.016;2023-03-21T10:47:10;100431.77;;;16.69;37.83
56176;BME280;63065;51.082;17.016;2023-03-21T10:49:36;100428.82;;;16.99;36.22
56176;BME280;63065;51.082;17.016;2023-03-21T10:52:04;100427.94;;;16.69;36.03
56176;BME280;63065;51.082;17.016;2023-03-21T10:54:29;100431.13;;;16.95;36.57
56176;BME280;63065;51.082;17.016;2023-03-21T10:56:55;100432.27;;;16.97;37.35
56176;BME280;63065;51.082;17.016;2023-03-21T10:59:19;100432.19;;;17.06;37.13
56176;BME280;63065;51.082;17.016;2023-03-21T11:01:47;100431.48;;;17.38;35.11
56176;BME280;63065;51.082;17.016;2023-03-21T11:04:13;100428.66;;;17.58;35.04
56176;BME280;63065;51.082;17.016;2023-03-21T11:06:38;100426.41;;;17.65;36.07
56176;BME280;63065;51.082;17.016;2023-03-21T11:09:05;100426.26;;;17.80;35.65
56176;BME280;63065;51.082;17.016;2023-03-21T11:11:27;100427.32;;;17.82;35.47
56176;BME280;63065;51.082;17.016;2023-03-21T11:13:56;100423.60;;;17.74;34.49
56176;BME280;63065;51.082;17.016;2023-03-21T11:16:21;100422.55;;;17.66;33.73
56176;BME280;63065;51.082;17.016;2023-03-21T11:18:43;100421.06;;;17.46;34.30
56176;BME280;63065;51.082;17.016;2023-03-21T11:21:09;100421.75;;;17.15;34.16
56176;BME280;63065;51.082;17.016;2023-03-21T11:23:34;100419.53;;;17.08;35.46
56176;BME280;63065;51.082;17.016;2023-03-21T11:25:59;100422.42;;;16.85;34.86
56176;BME280;63065;51.082;17.016;2023-03-21T11:28:24;100419.29;;;16.81;34.34
56176;BME280;63065;51.082;17.016;2023-03-21T11:30:50;100417.47;;;16.43;35.15
56176;BME280;63065;51.082;17.016;2023-03-21T11:33:13;100414.52;;;16.17;35.49
56176;BME280;63065;51.082;17.016;2023-03-21T11:35:39;100414.83;;;15.97;36.84
56176;BME280;63065;51.082;17.016;2023-03-21T11:38:09;100408.31;;;16.52;36.11
56176;BME280;63065;51.082;17.016;2023-03-21T11:40:31;100409.96;;;16.52;36.09
56176;BME280;63065;51.082;17.016;2023-03-21T11:42:57;100407.76;;;16.41;35.33
56176;BME280;63065;51.082;17.016;2023-03-21T11:45:22;100403.64;;;16.50;35.62
56176;BME280;63065;51.082;17.016;2023-03-21T11:47:53;100404.00;;;17.24;34.88
56176;BME280;63065;51.082;17.016;2023-03-21T11:50:24;100399.28;;;16.93;35.51
56176;BME280;63065;51.082;17.016;2023-03-21T11:52:41;100405.97;;;17.41;34.08
56176;BME280;63065;51.082;17.016;2023-03-21T11:57:35;100399.65;;;17.31;33.28
56176;BME280;63065;51.082;17.016;2023-03-21T11:59:59;100396.97;;;17.54;34.58
56176;BME280;63065;51.082;17.016;2023-03-21T12:04:47;100393.61;;;16.69;34.70
56176;BME280;63065;51.082;17.016;2023-03-21T12:07:23;100394.19;;;16.40;36.87
56176;BME280;63065;51.082;17.016;2023-03-21T12:09:39;100393.39;;;16.79;35.62
56176;BME280;63065;51.082;17.016;2023-03-21T12:12:08;100389.17;;;16.73;34.63
56176;BME280;63065;51.082;17.016;2023-03-21T12:14:34;100386.54;;;17.09;35.20
56176;BME280;63065;51.082;17.016;2023-03-21T12:17:03;100383.69;;;17.09;34.79
56176;BME280;63065;51.082;17.016;2023-03-21T12:21:52;100378.05;;;17.10;36.16
56176;BME280;63065;51.082;17.016;2023-03-21T12:24:12;100378.95;;;17.01;34.32
56176;BME280;63065;51.082;17.016;2023-03-21T12:26:40;100372.94;;;17.22;34.62
56176;BME280;63065;51.082;17.016;2023-03-21T12:29:15;100369.64;;;17.08;33.22
56176;BME280;63065;51.082;17.016;2023-03-21T12:31:29;100368.99;;;16.80;34.91
56176;BME280;63065;51.082;17.016;2023-03-21T12:34:00;100364.40;;;17.04;34.08
56176;BME280;63065;51.082;17.016;2023-03-21T12:36:27;100362.25;;;16.97;33.44
56176;BME280;63065;51.082;17.016;2023-03-21T12:38:47;100356.78;;;16.99;34.22
56176;BME280;63065;51.082;17.016;2023-03-21T12:41:19;100356.89;;;17.29;34.11
56176;BME280;63065;51.082;17.016;2023-03-21T12:43:40;100351.60;;;17.58;32.45
56176;BME280;63065;51.082;17.016;2023-03-21T12:46:01;100354.48;;;17.33;32.57